Time;durP1;ratioP1;P1;durP2;ratioP2;P2;SDS_P1;SDS_P2;PMS_P1;PMS_P2;Temp;Humidity;BMP_temperature;BMP_pressure;BME280_temperature;BME280_humidity;BME280_pressure;Samples;Min_cycle;Max_cycle;Signal;HPM_P1;HPM_P2
2022/06/14 00:01:45;;;;;;;3.15;2.05;;;13.60;99.90;;;;;;5078010;27;20032;-38
2022/06/14 00:04:10;;;;;;;3.78;1.90;;;13.60;99.90;;;;;;5077114;28;20170;-36
2022/06/14 00:06:36;;;;;;;2.17;1.90;;;13.60;99.90;;;;;;5078734;28;20110;-37
2022/06/14 00:09:03;;;;;;;1.75;1.60;;;13.50;99.90;;;;;;5082883;28;20459;-38
2022/06/14 00:11:32;;;;;;;2.35;1.90;;;13.50;99.90;;;;;;5082834;28;20039;-35
2022/06/14 00:14:01;;;;;;;5.00;2.00;;;13.50;99.90;;;;;;5086535;28;20020;-37
2022/06/14 00:16:27;;;;;;;;;;;13.50;99.90;;;;;;5076918;28;20421;-38
2022/06/14 00:18:52;;;;;;;1.90;1.80;;;13.50;99.90;;;;;;5085682;28;19964;-39
2022/06/14 00:21:19;;;;;;;3.35;2.10;;;13.40;99.90;;;;;;5082574;28;21817;-39
2022/06/14 00:23:45;;;;;;;2.40;2.20;;;13.50;99.90;;;;;;5089600;28;20034;-39
2022/06/14 00:26:12;;;;;;;2.55;2.05;;;13.40;99.90;;;;;;5079140;28;20463;-38
2022/06/14 00:28:39;;;;;;;3.30;2.30;;;13.40;99.90;;;;;;5089560;28;20411;-38
2022/06/14 00:31:31;;;;;;;2.28;2.08;;;13.40;99.90;;;;;;5101734;27;20086;-38
2022/06/14 00:33:57;;;;;;;2.83;2.10;;;13.30;99.90;;;;;;5086208;28;20044;-37
2022/06/14 00:36:32;;;;;;;2.97;2.20;;;13.30;99.90;;;;;;5079511;28;20031;-35
2022/06/14 00:39:02;;;;;;;2.25;2.10;;;13.20;99.90;;;;;;5082182;28;20036;-39
2022/06/14 00:41:38;;;;;;;3.47;1.80;;;13.20;99.90;;;;;;5083758;28;20073;-39
2022/06/14 00:44:08;;;;;;;3.45;2.00;;;13.30;99.90;;;;;;5080462;28;20033;-37
2022/06/14 00:46:39;;;;;;;2.22;1.70;;;13.20;99.90;;;;;;5077891;28;20043;-36
2022/06/14 00:49:14;;;;;;;2.72;2.00;;;13.10;99.90;;;;;;5094423;28;20028;-39
2022/06/14 00:52:00;;;;;;;2.50;1.90;;;13.10;99.90;;;;;;5086672;28;20036;-35
2022/06/14 00:54:34;;;;;;;3.42;1.90;;;13.00;99.90;;;;;;5080490;28;20032;-35
2022/06/14 00:57:08;;;;;;;2.42;1.70;;;13.00;99.90;;;;;;5083791;28;20039;-39
2022/06/14 00:59:41;;;;;;;3.20;2.10;;;13.00;99.90;;;;;;5090410;28;20055;-39
2022/06/14 01:02:14;;;;;;;2.13;1.92;;;13.00;99.90;;;;;;5082236;28;21272;-39
2022/06/14 01:04:41;;;;;;;2.10;1.80;;;12.90;99.90;;;;;;5091080;28;20039;-39
2022/06/14 01:07:15;;;;;;;4.75;1.92;;;12.90;99.90;;;;;;5082863;28;20031;-37
2022/06/14 01:09:43;;;;;;;2.47;2.00;;;12.80;99.90;;;;;;5088451;28;20034;-35
2022/06/14 01:12:19;;;;;;;4.20;2.05;;;12.80;99.90;;;;;;5086962;28;20038;-39
2022/06/14 01:14:48;;;;;;;2.55;2.08;;;12.80;99.90;;;;;;5083433;28;20040;-36
2022/06/14 01:17:14;;;;;;;2.60;1.85;;;12.70;99.90;;;;;;5081144;28;20106;-38
2022/06/14 01:19:41;;;;;;;2.97;1.98;;;12.70;99.90;;;;;;5090385;28;20036;-37
2022/06/14 01:22:06;;;;;;;2.33;2.13;;;12.70;99.90;;;;;;5090888;28;20040;-39
2022/06/14 01:24:33;;;;;;;2.45;2.25;;;12.70;99.90;;;;;;5092420;28;20051;-38
2022/06/14 01:27:00;;;;;;;3.20;2.13;;;12.60;99.90;;;;;;5082928;28;20027;-38
2022/06/14 01:29:28;;;;;;;3.08;2.20;;;12.60;99.90;;;;;;5088376;28;20020;-37
2022/06/14 01:31:59;;;;;;;3.90;2.13;;;12.50;99.90;;;;;;5082601;27;20467;-39
2022/06/14 01:34:27;;;;;;;2.20;1.98;;;12.50;99.90;;;;;;5096396;28;20108;-37
2022/06/14 01:36:53;;;;;;;5.40;2.25;;;12.40;99.90;;;;;;5090768;28;20036;-37
2022/06/14 01:39:19;;;;;;;2.25;2.05;;;12.40;99.90;;;;;;5084742;28;20032;-38
2022/06/14 01:42:10;;;;;;;2.30;2.10;;;12.40;99.90;;;;;;5087687;28;20028;-39
2022/06/14 01:44:55;;;;;;;2.70;2.00;;;12.30;99.90;;;;;;5083221;28;20023;-39
2022/06/14 01:47:40;;;;;;;4.38;2.35;;;12.30;99.90;;;;;;5086825;28;20056;-39
2022/06/14 01:53:40;;;;;;;2.58;2.20;;;12.30;99.90;;;;;;5088562;28;20495;-36
2022/06/14 01:56:19;;;;;;;2.63;1.90;;;12.30;99.90;;;;;;5080685;28;20183;-37
2022/06/14 01:58:49;;;;;;;2.17;1.80;;;12.20;99.90;;;;;;5079677;28;20067;-37
2022/06/14 02:01:39;;;;;;;3.55;2.22;;;12.20;99.90;;;;;;5080388;27;20039;-37
2022/06/14 02:04:39;;;;;;;4.32;2.50;;;12.10;99.90;;;;;;5071723;28;20032;-39
2022/06/14 02:07:28;;;;;;;2.35;2.15;;;12.10;99.90;;;;;;5075706;28;20032;-36
2022/06/14 02:09:53;;;;;;;5.38;2.20;;;12.00;99.90;;;;;;5076666;28;20051;-39
2022/06/14 02:12:42;;;;;;;7.10;2.03;;;12.00;99.90;;;;;;5086483;28;20059;-38
2022/06/14 02:15:16;;;;;;;5.93;2.50;;;12.00;99.90;;;;;;5078095;28;20032;-36
2022/06/14 02:18:08;;;;;;;4.63;2.88;;;11.90;99.90;;;;;;5086207;28;20035;-36
2022/06/14 02:20:49;;;;;;;2.30;2.10;;;11.90;99.90;;;;;;5093452;28;20515;-37
2022/06/14 02:23:15;;;;;;;2.75;2.17;;;11.90;99.90;;;;;;5086052;28;20077;-38
2022/06/14 02:25:57;;;;;;;3.17;2.10;;;11.80;99.90;;;;;;5086378;28;20077;-39
2022/06/14 02:28:32;;;;;;;3.10;2.05;;;11.70;99.90;;;;;;5079744;28;20065;-38
2022/06/14 02:31:04;;;;;;;2.38;2.17;;;11.70;99.90;;;;;;5080985;27;20028;-39
2022/06/14 02:33:37;;;;;;;3.33;2.05;;;11.70;99.90;;;;;;5080109;28;20082;-39
2022/06/14 02:36:35;;;;;;;3.80;2.20;;;11.70;99.90;;;;;;5080584;28;20036;-39
2022/06/14 02:39:23;;;;;;;2.40;2.20;;;11.70;99.90;;;;;;5055781;28;20070;-37
2022/06/14 02:42:12;;;;;;;2.45;2.28;;;11.50;99.90;;;;;;5082816;28;20282;-38
2022/06/14 02:44:54;;;;;;;2.03;1.92;;;11.50;99.90;;;;;;5086083;28;20373;-38
2022/06/14 02:47:32;;;;;;;2.13;1.92;;;11.50;99.90;;;;;;5086663;28;20392;-37
2022/06/14 02:50:10;;;;;;;4.35;2.72;;;11.50;99.90;;;;;;5078442;28;20021;-36
2022/06/14 02:52:38;;;;;;;;;;;11.50;99.90;;;;;;5086278;28;20427;-38
2022/06/14 02:55:11;;;;;;;2.92;2.08;;;11.40;99.90;;;;;;5085906;28;20001;-39
2022/06/14 02:57:59;;;;;;;3.10;2.00;;;11.40;99.90;;;;;;5079867;28;20029;-37
2022/06/14 03:00:28;;;;;;;;;;;11.40;99.90;;;;;;5078826;27;20020;-39
2022/06/14 03:03:07;;;;;;;5.20;2.40;;;11.30;99.90;;;;;;5086493;28;20521;-36
2022/06/14 03:05:35;;;;;;;7.10;2.60;;;11.30;99.90;;;;;;5089062;28;20035;-37
2022/06/14 03:08:11;;;;;;;3.10;2.35;;;11.30;99.90;;;;;;5079460;28;20027;-39
2022/06/14 03:10:44;;;;;;;3.15;2.70;;;11.30;99.90;;;;;;5083597;28;20084;-38
2022/06/14 03:13:54;;;;;;;4.20;2.75;;;11.30;99.90;;;;;;5079943;28;20393;-36
2022/06/14 03:16:35;;;;;;;2.80;2.50;;;11.20;99.90;;;;;;5050016;28;20028;-38
2022/06/14 03:19:17;;;;;;;2.58;2.00;;;11.10;99.90;;;;;;5079120;28;20401;-38
2022/06/14 03:21:49;;;;;;;1.92;1.75;;;11.10;99.90;;;;;;5087060;28;20142;-39
2022/06/14 03:24:45;;;;;;;1.90;1.80;;;11.00;99.90;;;;;;5085027;28;20485;-37
2022/06/14 03:27:37;;;;;;;1.60;1.50;;;11.00;99.90;;;;;;5086963;28;20016;-38
2022/06/14 03:30:23;;;;;;;2.50;1.92;;;11.00;99.90;;;;;;5083924;28;20031;-36
2022/06/14 03:33:02;;;;;;;2.88;1.80;;;11.00;99.90;;;;;;5083690;28;20479;-39
2022/06/14 03:35:32;;;;;;;1.70;1.60;;;11.00;99.90;;;;;;5085977;28;20031;-39
2022/06/14 03:38:06;;;;;;;1.85;1.75;;;11.00;99.90;;;;;;5077042;28;20024;-36
2022/06/14 03:40:31;;;;;;;1.92;1.83;;;11.00;99.90;;;;;;5084038;28;20016;-39
2022/06/14 03:43:00;;;;;;;2.22;2.00;;;11.00;99.90;;;;;;5092009;28;20281;-38
2022/06/14 03:45:57;;;;;;;2.58;1.77;;;11.00;99.90;;;;;;5091037;28;20023;-38
2022/06/14 03:48:23;;;;;;;5.40;2.00;;;11.00;99.90;;;;;;5049070;27;20115;-39
2022/06/14 03:50:52;;;;;;;4.20;2.05;;;11.00;99.90;;;;;;5085018;28;20035;-39
2022/06/14 03:53:27;;;;;;;;;;;11.00;99.90;;;;;;5078359;28;20028;-38
2022/06/14 03:56:00;;;;;;;1.40;1.30;;;11.10;99.90;;;;;;5089269;28;19980;-39
2022/06/14 03:58:47;;;;;;;1.40;1.30;;;11.10;99.90;;;;;;5083544;28;20020;-37
2022/06/14 04:01:19;;;;;;;1.88;1.70;;;11.20;99.90;;;;;;5076037;28;20066;-39
2022/06/14 04:04:07;;;;;;;2.10;1.90;;;11.20;99.90;;;;;;5077761;28;20030;-38
2022/06/14 04:07:06;;;;;;;3.47;2.28;;;11.30;99.90;;;;;;5084670;28;20024;-38
2022/06/14 04:09:50;;;;;;;5.43;2.25;;;11.20;99.90;;;;;;5081681;28;20477;-36
2022/06/14 04:13:13;;;;;;;2.45;2.08;;;11.20;99.90;;;;;;5084334;28;20040;-37
2022/06/14 04:16:04;;;;;;;2.10;1.90;;;11.20;99.90;;;;;;5038520;28;20032;-39
2022/06/14 04:19:14;;;;;;;1.92;1.83;;;11.20;99.90;;;;;;5034696;28;20032;-36
2022/06/14 04:21:57;;;;;;;2.10;1.90;;;11.20;99.90;;;;;;5036232;28;20037;-39
2022/06/14 04:24:51;;;;;;;1.92;1.83;;;11.40;99.90;;;;;;5076091;28;20054;-36
2022/06/14 04:27:19;;;;;;;4.55;2.17;;;11.40;99.90;;;;;;5090177;28;20104;-39
2022/06/14 04:29:57;;;;;;;2.65;1.90;;;11.50;99.90;;;;;;5081466;28;20028;-39
2022/06/14 04:32:35;;;;;;;2.05;1.88;;;11.60;99.90;;;;;;5075530;28;20044;-39
2022/06/14 04:35:12;;;;;;;2.83;2.00;;;11.60;99.90;;;;;;5087275;28;20059;-39
2022/06/14 04:37:44;;;;;;;2.55;2.15;;;11.60;99.90;;;;;;5076143;28;20500;-36
2022/06/14 04:40:16;;;;;;;3.20;2.20;;;11.60;99.90;;;;;;5079032;28;20489;-39
2022/06/14 04:43:03;;;;;;;3.65;2.42;;;11.70;99.90;;;;;;5088580;28;20028;-39
2022/06/14 04:45:40;;;;;;;2.58;2.38;;;11.90;99.90;;;;;;5091585;28;20081;-38
2022/06/14 04:48:32;;;;;;;5.85;2.40;;;12.00;99.90;;;;;;5086786;28;20388;-39
2022/06/14 04:51:21;;;;;;;5.78;2.45;;;12.10;99.90;;;;;;5083677;28;20039;-38
2022/06/14 04:53:59;;;;;;;3.38;2.45;;;12.20;99.90;;;;;;5079296;28;20040;-37
2022/06/14 04:56:32;;;;;;;4.65;2.88;;;12.40;99.90;;;;;;5082421;28;20730;-36
2022/06/14 04:59:03;;;;;;;3.28;2.78;;;12.40;99.90;;;;;;5083367;28;20036;-38
2022/06/14 05:01:40;;;;;;;3.80;2.58;;;12.50;99.90;;;;;;5079539;27;20063;-37
2022/06/14 05:04:30;;;;;;;3.55;3.00;;;12.60;99.90;;;;;;5087279;28;20030;-37
2022/06/14 05:07:37;;;;;;;3.63;2.75;;;12.60;99.90;;;;;;5090675;28;20024;-37
2022/06/14 05:10:40;;;;;;;2.78;2.45;;;12.60;99.90;;;;;;5075395;28;20067;-39
2022/06/14 05:13:10;;;;;;;3.03;2.67;;;12.60;99.90;;;;;;5083136;28;20035;-39
2022/06/14 05:15:47;;;;;;;3.78;2.80;;;12.70;99.90;;;;;;5078192;28;20028;-39
2022/06/14 05:18:30;;;;;;;5.10;3.10;;;12.90;99.90;;;;;;5090951;28;20040;-36
2022/06/14 05:21:01;;;;;;;3.38;3.10;;;13.00;99.90;;;;;;5073731;28;20078;-37
2022/06/14 05:23:37;;;;;;;6.40;3.90;;;13.00;99.90;;;;;;5093267;28;20028;-39
2022/06/14 05:26:08;;;;;;;6.15;3.72;;;13.10;99.90;;;;;;5088311;28;20029;-39
2022/06/14 05:28:47;;;;;;;5.30;3.50;;;13.10;99.90;;;;;;5088952;28;20032;-36
2022/06/14 05:31:30;;;;;;;5.43;3.35;;;13.20;99.90;;;;;;5087820;27;20040;-39
2022/06/14 05:34:12;;;;;;;6.00;4.13;;;13.30;99.90;;;;;;5085835;28;20024;-39
2022/06/14 05:36:51;;;;;;;6.07;3.58;;;13.40;99.90;;;;;;5091416;28;20056;-38
2022/06/14 05:39:49;;;;;;;9.85;4.40;;;13.60;99.90;;;;;;5091373;28;20027;-39
2022/06/14 05:42:22;;;;;;;5.88;3.95;;;13.80;99.90;;;;;;5078607;28;20040;-39
2022/06/14 05:44:51;;;;;;;7.65;4.15;;;13.90;99.90;;;;;;5083293;28;20060;-39
2022/06/14 05:47:45;;;;;;;5.63;4.38;;;13.90;99.90;;;;;;5073874;28;20178;-36
2022/06/14 05:50:17;;;;;;;7.90;4.22;;;14.10;99.90;;;;;;5076293;28;20039;-39
2022/06/14 05:53:28;;;;;;;6.00;4.70;;;14.30;99.90;;;;;;5087193;28;20081;-38
2022/06/14 05:56:06;;;;;;;7.50;5.18;;;14.40;99.90;;;;;;5022841;28;20046;-37
2022/06/14 05:58:41;;;;;;;9.80;5.50;;;14.50;99.90;;;;;;5024466;28;20033;-39
2022/06/14 06:01:26;;;;;;;7.88;5.22;;;14.70;99.90;;;;;;5060600;28;20055;-36
2022/06/14 06:04:19;;;;;;;8.02;5.25;;;14.80;99.90;;;;;;5076374;28;20040;-38
2022/06/14 06:06:49;;;;;;;9.48;5.63;;;14.90;99.90;;;;;;5077467;28;20032;-38
2022/06/14 06:09:25;;;;;;;8.25;5.47;;;15.00;99.90;;;;;;5083811;28;20028;-38
2022/06/14 06:11:54;;;;;;;8.18;5.20;;;15.20;99.90;;;;;;5078695;28;20035;-39
2022/06/14 06:14:32;;;;;;;6.50;4.75;;;15.30;99.90;;;;;;5082694;28;20483;-39
2022/06/14 06:17:14;;;;;;;6.93;4.63;;;15.40;99.90;;;;;;5083456;28;20124;-38
2022/06/14 06:20:01;;;;;;;9.65;4.80;;;15.60;99.90;;;;;;5087065;28;20031;-39
2022/06/14 06:22:39;;;;;;;7.83;4.67;;;15.80;99.90;;;;;;5077552;28;20052;-39
2022/06/14 06:25:10;;;;;;;8.15;4.72;;;15.90;99.90;;;;;;5091515;28;20724;-38
2022/06/14 06:27:40;;;;;;;4.80;4.30;;;16.00;99.90;;;;;;5093840;28;20119;-39
2022/06/14 06:30:23;;;;;;;9.70;5.15;;;16.10;99.90;;;;;;5089432;28;20047;-36
2022/06/14 06:32:49;;;;;;;7.95;4.35;;;16.20;99.90;;;;;;5087356;28;20131;-39
2022/06/14 06:35:15;;;;;;;6.35;4.53;;;16.30;99.90;;;;;;5088362;28;20552;-39
2022/06/14 06:37:50;;;;;;;7.32;4.22;;;16.50;99.90;;;;;;5091457;28;20114;-38
2022/06/14 06:40:23;;;;;;;6.22;4.05;;;16.60;99.60;;;;;;5086784;28;20382;-36
2022/06/14 06:43:02;;;;;;;7.93;4.40;;;16.70;99.90;;;;;;5088396;28;20051;-39
2022/06/14 06:45:31;;;;;;;6.65;4.25;;;16.90;99.90;;;;;;5085012;28;20074;-38
2022/06/14 06:47:59;;;;;;;;;;;17.10;97.70;;;;;;5089649;28;20024;-39
2022/06/14 06:50:56;;;;;;;8.23;4.60;;;17.10;97.60;;;;;;5093925;28;19911;-39
2022/06/14 06:53:24;;;;;;;8.63;4.90;;;17.30;97.10;;;;;;5080045;28;20052;-38
2022/06/14 06:55:57;;;;;;;7.78;4.38;;;17.40;97.20;;;;;;5087154;28;20056;-37
2022/06/14 06:58:28;;;;;;;17.90;6.05;;;17.50;94.50;;;;;;5089416;28;20031;-38
2022/06/14 07:00:57;;;;;;;7.68;3.92;;;17.80;94.50;;;;;;5084270;27;20036;-39
2022/06/14 07:03:42;;;;;;;6.32;3.75;;;17.80;88.20;;;;;;5086910;28;20469;-36
2022/06/14 07:06:20;;;;;;;14.23;5.07;;;18.00;83.90;;;;;;5089290;28;20057;-39
2022/06/14 07:08:57;;;;;;;7.45;4.00;;;18.00;78.30;;;;;;5085705;28;20036;-38
2022/06/14 07:11:31;;;;;;;6.35;4.07;;;18.20;74.50;;;;;;5086725;28;20066;-39
2022/06/14 07:14:13;;;;;;;7.47;3.90;;;18.30;74.90;;;;;;5104674;27;20028;-37
2022/06/14 07:17:04;;;;;;;6.55;4.15;;;18.40;78.10;;;;;;5085553;28;20024;-39
2022/06/14 07:19:56;;;;;;;5.50;3.55;;;18.50;70.70;;;;;;5078371;28;20534;-36
2022/06/14 07:22:32;;;;;;;4.00;2.90;;;18.50;68.70;;;;;;5085390;28;20397;-38
2022/06/14 07:25:05;;;;;;;5.40;3.10;;;18.60;69.60;;;;;;5081536;28;20025;-39
2022/06/14 07:27:38;;;;;;;4.55;2.92;;;18.60;66.60;;;;;;5086847;28;20063;-35
2022/06/14 07:30:15;;;;;;;5.28;2.70;;;18.70;63.50;;;;;;5088475;28;20111;-36
2022/06/14 07:32:46;;;;;;;5.10;3.33;;;18.90;63.60;;;;;;5086013;28;20040;-38
2022/06/14 07:35:17;;;;;;;9.93;3.33;;;19.10;61.70;;;;;;5084289;28;20081;-38
2022/06/14 07:38:03;;;;;;;3.92;2.95;;;19.20;63.60;;;;;;5086134;28;20449;-35
2022/06/14 07:40:41;;;;;;;4.47;2.78;;;19.40;66.00;;;;;;5080111;28;20024;-36
2022/06/14 07:43:23;;;;;;;7.38;2.78;;;19.40;62.60;;;;;;5085535;28;20679;-38
2022/06/14 07:45:50;;;;;;;7.38;2.97;;;19.40;62.10;;;;;;5078765;28;20485;-37
2022/06/14 07:48:37;;;;;;;6.40;2.70;;;19.40;60.20;;;;;;5084370;28;20032;-38
2022/06/14 07:51:13;;;;;;;6.20;2.40;;;19.90;55.40;;;;;;5083317;28;20032;-38
2022/06/14 07:53:55;;;;;;;6.00;3.22;;;20.00;59.00;;;;;;5088061;28;20034;-37
2022/06/14 07:56:26;;;;;;;4.75;2.80;;;20.00;59.70;;;;;;5078295;28;20051;-38
2022/06/14 07:58:58;;;;;;;4.57;2.50;;;19.80;56.50;;;;;;5089473;28;20086;-38
2022/06/14 08:01:35;;;;;;;3.03;2.40;;;19.90;56.20;;;;;;5084864;27;20105;-38
2022/06/14 08:04:16;;;;;;;4.75;3.20;;;20.00;56.00;;;;;;5085708;28;20020;-38
2022/06/14 08:06:52;;;;;;;4.28;2.60;;;20.20;56.80;;;;;;5091827;28;20202;-36
2022/06/14 08:09:40;;;;;;;6.82;3.05;;;20.20;57.80;;;;;;5090380;28;20038;-39
2022/06/14 08:12:30;;;;;;;3.90;2.42;;;20.40;58.50;;;;;;5083197;28;20035;-36
2022/06/14 08:15:07;;;;;;;4.40;2.58;;;20.30;53.60;;;;;;5080535;28;20114;-38
2022/06/14 08:17:46;;;;;;;4.40;2.45;;;20.60;57.50;;;;;;5079686;28;20094;-39
2022/06/14 08:20:26;;;;;;;4.45;2.40;;;20.80;53.30;;;;;;5075195;28;20039;-39
2022/06/14 08:23:09;;;;;;;6.47;2.67;;;21.00;58.50;;;;;;5080300;28;20085;-39
2022/06/14 08:25:40;;;;;;;4.43;2.53;;;21.00;58.00;;;;;;5082844;28;20040;-36
2022/06/14 08:28:15;;;;;;;3.40;2.70;;;20.90;54.60;;;;;;5078962;28;20028;-39
2022/06/14 08:30:55;;;;;;;4.63;2.67;;;20.80;53.30;;;;;;5081590;27;20092;-36
2022/06/14 08:33:27;;;;;;;3.72;2.65;;;20.80;53.80;;;;;;5078090;28;20042;-39
2022/06/14 08:35:57;;;;;;;4.78;2.97;;;20.80;54.90;;;;;;5083812;28;20037;-36
2022/06/14 08:38:41;;;;;;;3.47;2.40;;;20.90;55.50;;;;;;5090918;28;20024;-39
2022/06/14 08:41:12;;;;;;;7.22;2.90;;;21.00;54.70;;;;;;5087745;28;20507;-37
2022/06/14 08:44:27;;;;;;;7.45;3.08;;;21.10;51.70;;;;;;5091360;28;20762;-39
2022/06/14 08:47:03;;;;;;;5.88;2.67;;;21.40;51.10;;;;;;5072896;28;20071;-39
2022/06/14 08:49:50;;;;;;;3.70;2.70;;;21.60;54.40;;;;;;5083337;28;20024;-37
2022/06/14 08:52:35;;;;;;;3.80;2.65;;;21.50;50.90;;;;;;5081598;28;20102;-38
2022/06/14 08:55:10;;;;;;;4.57;2.47;;;22.00;53.20;;;;;;5081699;28;20040;-38
2022/06/14 08:57:45;;;;;;;5.90;2.75;;;21.70;52.00;;;;;;5089733;28;20028;-35
2022/06/14 09:00:19;;;;;;;4.45;2.88;;;21.90;52.00;;;;;;5084724;28;20021;-39
2022/06/14 09:02:54;;;;;;;3.10;2.50;;;21.70;50.00;;;;;;5080843;27;20508;-38
2022/06/14 09:05:51;;;;;;;4.43;2.80;;;21.50;51.40;;;;;;5087661;28;20047;-38
2022/06/14 09:08:23;;;;;;;4.45;2.40;;;21.90;52.20;;;;;;5083051;28;20060;-39
2022/06/14 09:11:13;;;;;;;5.78;3.25;;;21.80;51.60;;;;;;5095514;27;20041;-37
2022/06/14 09:14:15;;;;;;;5.25;2.65;;;22.00;49.70;;;;;;5086848;28;20032;-39
2022/06/14 09:17:02;;;;;;;4.50;2.83;;;22.00;48.90;;;;;;5091278;28;20100;-36
2022/06/14 09:19:33;;;;;;;4.47;2.95;;;22.00;49.40;;;;;;5085240;28;20090;-37
2022/06/14 09:22:23;;;;;;;4.53;2.75;;;21.90;49.60;;;;;;5082430;28;20027;-39
2022/06/14 09:25:13;;;;;;;4.53;2.47;;;21.70;47.10;;;;;;5080960;28;20090;-39
2022/06/14 09:27:47;;;;;;;3.53;2.28;;;21.80;47.00;;;;;;5088967;28;20038;-36
2022/06/14 09:30:33;;;;;;;3.70;2.35;;;22.20;49.00;;;;;;5090373;28;20480;-37
2022/06/14 09:33:09;;;;;;;4.30;2.92;;;22.80;49.10;;;;;;5090954;28;20493;-36
2022/06/14 09:36:05;;;;;;;4.43;2.40;;;23.00;48.90;;;;;;5085048;28;20081;-35
2022/06/14 09:39:08;;;;;;;5.70;2.28;;;22.80;45.50;;;;;;5084540;28;20024;-38
2022/06/14 09:41:58;;;;;;;5.55;2.42;;;22.70;44.50;;;;;;5079222;28;20511;-37
2022/06/14 09:44:42;;;;;;;8.40;2.63;;;22.70;46.90;;;;;;5081628;28;20024;-38
2022/06/14 09:47:45;;;;;;;3.58;2.28;;;22.70;48.80;;;;;;5089691;28;20036;-38
2022/06/14 09:50:11;;;;;;;5.30;2.40;;;22.60;46.00;;;;;;5084654;28;20031;-39
2022/06/14 09:53:08;;;;;;;4.38;3.38;;;22.50;44.60;;;;;;5087157;28;20023;-38
2022/06/14 09:56:10;;;;;;;4.03;2.53;;;22.70;46.60;;;;;;5091412;28;20071;-38
2022/06/14 09:59:04;;;;;;;3.80;2.20;;;22.60;44.10;;;;;;5075956;28;20387;-38
2022/06/14 10:01:38;;;;;;;4.93;2.40;;;22.80;42.70;;;;;;5079637;27;20028;-36
2022/06/14 10:04:35;;;;;;;3.95;2.13;;;23.10;42.70;;;;;;5080121;28;20065;-38
2022/06/14 10:07:28;;;;;;;2.90;2.20;;;23.20;45.20;;;;;;5081621;28;20039;-35
2022/06/14 10:10:22;;;;;;;5.25;2.45;;;23.80;43.60;;;;;;5085952;28;20106;-39
2022/06/14 10:13:25;;;;;;;3.40;2.28;;;24.20;41.30;;;;;;5079967;28;20045;-38
2022/06/14 10:16:18;;;;;;;4.25;2.35;;;24.10;43.60;;;;;;5081541;28;20477;-38
2022/06/14 10:19:12;;;;;;;3.63;2.20;;;23.90;42.00;;;;;;5082262;28;20099;-37
2022/06/14 10:21:46;;;;;;;4.18;2.15;;;24.20;43.50;;;;;;5081943;28;20024;-37
2022/06/14 10:24:31;;;;;;;2.67;1.92;;;24.30;40.80;;;;;;5089877;28;20024;-38
2022/06/14 10:30:19;;;;;;;2.30;2.10;;;23.50;43.70;;;;;;5083803;28;20489;-35
2022/06/14 10:32:44;;;;;;;3.20;2.40;;;23.60;41.90;;;;;;5087456;28;20040;-38
2022/06/14 10:35:20;;;;;;;5.18;2.40;;;23.70;42.50;;;;;;5080993;28;20032;-39
2022/06/14 10:38:38;;;;;;;5.30;2.35;;;23.60;40.60;;;;;;5085325;28;20323;-37
2022/06/14 10:41:12;;;;;;;3.22;2.03;;;23.40;42.10;;;;;;5078364;28;20493;-38
2022/06/14 10:43:52;;;;;;;6.53;4.97;;;23.30;40.70;;;;;;5083599;28;20074;-39
2022/06/14 10:46:32;;;;;;;3.78;2.60;;;23.50;43.20;;;;;;5089332;28;20059;-38
2022/06/14 10:49:36;;;;;;;6.28;2.35;;;23.40;42.50;;;;;;5092765;27;20039;-35
2022/06/14 10:52:22;;;;;;;3.88;2.58;;;22.70;42.20;;;;;;5053059;28;20067;-38
2022/06/14 10:55:03;;;;;;;3.22;2.40;;;22.80;41.00;;;;;;5077899;28;20066;-37
2022/06/14 10:57:54;;;;;;;2.40;2.20;;;22.60;41.70;;;;;;5085140;28;20115;-38
2022/06/14 11:00:55;;;;;;;4.60;2.78;;;22.70;42.40;;;;;;5089265;28;20028;-37
2022/06/14 11:03:31;;;;;;;4.55;2.05;;;22.90;40.80;;;;;;5084095;28;20122;-35
2022/06/14 11:06:43;;;;;;;5.32;2.42;;;23.00;42.00;;;;;;5078602;28;20031;-38
2022/06/14 11:09:19;;;;;;;3.78;2.65;;;22.90;41.60;;;;;;5091008;28;20115;-38
2022/06/14 11:11:48;;;;;;;4.45;2.70;;;22.70;43.60;;;;;;5087812;28;20032;-38
2022/06/14 11:14:39;;;;;;;5.78;2.60;;;22.70;45.50;;;;;;5086151;28;20143;-37
2022/06/14 11:17:27;;;;;;;2.60;2.40;;;22.80;43.50;;;;;;5086024;28;20131;-37
2022/06/14 11:20:21;;;;;;;4.90;3.10;;;22.60;42.20;;;;;;5085543;28;20497;-37
2022/06/14 11:23:09;;;;;;;5.65;2.90;;;22.60;43.20;;;;;;5086831;28;20717;-37
2022/06/14 11:25:58;;;;;;;7.93;2.65;;;22.60;45.70;;;;;;5082522;28;20102;-37
2022/06/14 11:28:47;;;;;;;4.00;3.20;;;22.60;44.30;;;;;;5086698;28;20118;-36
2022/06/14 11:31:33;;;;;;;3.83;2.50;;;22.80;45.40;;;;;;5082177;27;20025;-38
2022/06/14 11:34:20;;;;;;;4.95;2.80;;;22.60;43.90;;;;;;5077463;28;20028;-35
2022/06/14 11:37:04;;;;;;;5.07;2.80;;;22.40;45.10;;;;;;5084168;28;20115;-36
2022/06/14 11:39:33;;;;;;;3.55;2.70;;;22.70;45.70;;;;;;5082848;28;20102;-39
2022/06/14 11:42:05;;;;;;;3.67;2.70;;;22.40;44.00;;;;;;5077928;28;20091;-38
2022/06/14 11:44:52;;;;;;;6.15;2.80;;;22.50;46.60;;;;;;5082500;28;20430;-36
2022/06/14 11:47:38;;;;;;;5.18;2.78;;;22.50;44.10;;;;;;5083077;28;20058;-37
2022/06/14 11:50:10;;;;;;;4.35;2.22;;;22.60;44.20;;;;;;5092731;28;20460;-38
2022/06/14 11:52:53;;;;;;;4.13;2.40;;;22.40;43.50;;;;;;5079408;28;20549;-36
2022/06/14 11:55:41;;;;;;;4.20;2.90;;;22.50;45.10;;;;;;5088244;28;20041;-37
2022/06/14 11:58:31;;;;;;;2.97;2.38;;;22.90;44.10;;;;;;5088700;28;20096;-38
2022/06/14 12:01:32;;;;;;;3.85;2.25;;;22.60;44.30;;;;;;5080420;27;20044;-36
2022/06/14 12:04:16;;;;;;;3.30;2.50;;;22.60;40.60;;;;;;5077444;28;20730;-37
2022/06/14 12:06:56;;;;;;;5.15;2.30;;;22.60;42.50;;;;;;5088124;28;20492;-37
2022/06/14 12:10:02;;;;;;;3.85;2.53;;;22.80;43.90;;;;;;5086769;28;20028;-37
2022/06/14 12:12:36;;;;;;;4.40;2.72;;;22.70;43.70;;;;;;5094498;28;20067;-38
2022/06/14 12:15:31;;;;;;;4.85;2.65;;;23.00;44.60;;;;;;5085872;28;20085;-38
2022/06/14 12:18:01;;;;;;;2.95;2.25;;;23.20;45.70;;;;;;5095326;28;20028;-35
2022/06/14 12:20:34;;;;;;;6.45;2.70;;;23.40;43.20;;;;;;5092437;28;20051;-38
2022/06/14 12:23:16;;;;;;;3.28;2.20;;;23.20;42.80;;;;;;5086619;28;20055;-38
2022/06/14 12:28:50;;;;;;;4.60;2.47;;;22.90;39.90;;;;;;5085899;28;20392;-37
2022/06/14 12:31:35;;;;;;;3.47;2.30;;;22.70;44.90;;;;;;5084040;27;20084;-39
2022/06/14 12:34:09;;;;;;;4.93;2.65;;;23.00;44.00;;;;;;5085659;28;20374;-36
2022/06/14 12:36:48;;;;;;;4.70;2.30;;;22.70;40.50;;;;;;5088578;28;20064;-39
2022/06/14 12:39:20;;;;;;;2.97;2.42;;;22.70;42.30;;;;;;5092857;28;20028;-38
2022/06/14 12:42:12;;;;;;;3.42;2.30;;;22.80;42.30;;;;;;5076460;28;20085;-38
2022/06/14 12:44:56;;;;;;;4.55;2.50;;;23.00;40.50;;;;;;5093544;28;20032;-38
2022/06/14 12:47:50;;;;;;;4.07;2.50;;;22.90;42.20;;;;;;5089064;28;20024;-37
2022/06/14 12:50:24;;;;;;;3.70;2.63;;;22.80;41.00;;;;;;5089268;28;20039;-38
2022/06/14 12:52:57;;;;;;;6.10;2.30;;;22.80;42.20;;;;;;5097474;28;20024;-36
2022/06/14 12:55:34;;;;;;;4.28;3.05;;;23.00;43.90;;;;;;5092987;28;20046;-39
2022/06/14 12:58:12;;;;;;;;;;;22.90;40.60;;;;;;5100248;28;20028;-35
2022/06/14 13:01:07;;;;;;;5.88;2.53;;;22.70;43.10;;;;;;5092743;27;19912;-37
2022/06/14 13:03:55;;;;;;;5.78;2.63;;;22.70;42.30;;;;;;5069362;28;20127;-38
2022/06/14 13:06:57;;;;;;;4.63;2.58;;;22.80;46.30;;;;;;5076906;28;20027;-37
2022/06/14 13:09:49;;;;;;;6.00;2.60;;;22.90;44.10;;;;;;5078505;28;20703;-38
2022/06/14 13:12:30;;;;;;;3.20;2.50;;;22.90;45.10;;;;;;5084481;28;20512;-38
2022/06/14 13:15:02;;;;;;;2.40;2.20;;;23.00;44.40;;;;;;5080618;28;20024;-39
2022/06/14 13:17:45;;;;;;;6.00;2.55;;;23.10;41.90;;;;;;5088887;28;20032;-36
2022/06/14 13:20:30;;;;;;;3.33;2.40;;;23.00;41.30;;;;;;5085388;28;20101;-38
2022/06/14 13:23:06;;;;;;;7.05;2.70;;;23.00;43.70;;;;;;5079305;28;20024;-37
2022/06/14 13:25:57;;;;;;;6.10;2.35;;;23.00;44.50;;;;;;5086673;28;20024;-37
2022/06/14 13:28:41;;;;;;;3.83;2.67;;;23.10;47.60;;;;;;5090147;28;20025;-37
2022/06/14 13:31:24;;;;;;;4.18;2.13;;;23.00;42.40;;;;;;5090097;28;20035;-38
2022/06/14 13:34:11;;;;;;;3.63;2.50;;;23.10;42.30;;;;;;5083813;28;20107;-38
2022/06/14 13:37:18;;;;;;;4.00;2.53;;;23.00;43.20;;;;;;5086467;28;20063;-38
2022/06/14 13:39:51;;;;;;;4.53;2.42;;;23.00;42.60;;;;;;5069601;28;20043;-36
2022/06/14 13:42:36;;;;;;;4.38;3.30;;;22.90;40.30;;;;;;5089381;28;20179;-36
2022/06/14 13:45:15;;;;;;;5.10;2.65;;;22.80;45.30;;;;;;5081772;28;20024;-35
2022/06/14 13:47:43;;;;;;;4.55;2.30;;;22.90;41.80;;;;;;5078372;28;20065;-37
2022/06/14 13:50:44;;;;;;;2.78;2.58;;;22.90;43.80;;;;;;5092278;28;20118;-38
2022/06/14 13:53:28;;;;;;;3.03;2.10;;;23.10;41.10;;;;;;5046161;28;20115;-37
2022/06/14 13:56:10;;;;;;;3.35;2.38;;;22.90;39.60;;;;;;5078022;28;20129;-35
2022/06/14 13:58:51;;;;;;;4.80;2.35;;;23.10;44.20;;;;;;5087577;28;20037;-38
2022/06/14 14:01:40;;;;;;;3.60;2.40;;;23.10;42.80;;;;;;5087730;27;20031;-38
2022/06/14 14:04:15;;;;;;;4.40;2.78;;;23.20;43.30;;;;;;5087534;28;20573;-35
2022/06/14 14:06:43;;;;;;;3.33;2.55;;;23.20;40.00;;;;;;5073852;28;20062;-34